Terminal Aerodrome Forecast
Issued by NWS

Home | Current Version | Previous Version | Text Only | Print | Product List | Glossary On
Versions: 1 2 3 4 5 6 7 8 9 10 11 12 13 14 15 16 17 18 19 20 21 22 23 24 25 26
333
FTUS42 KCAE 041120
TAFDNL
TAF
KDNL 041120Z 0412/0512 07008KT P6SM VCSH OVC080
     FM041500 08010KT P6SM VCSH OVC035
     FM041900 07008KT 5SM -RA BR OVC020
     FM042100 06009KT 3SM -RA BR OVC010
     FM050600 36006KT 3SM -RA BR OVC008=

USA.gov is the U.S. government's official web portal to all federal, state and local government web resources and services.